Alexander Maersk — OZRC2 — position and weather

sailwx.info

Track history (hours):
 
Tides and Currents Weather Stations Pressure Air Temp Water Temp Dewpoint Dewpoint Depression Visibility Wind Speed Wind Dir Waves Ship Positions

Alexander Maersk

Last reported at 2018-Feb-14 04:02 UTC. Time now 2018-Feb-20 00:01 UTC.
Position N 35°39' E 014°37'.

Length 155 m; draft 7.9 m.

Type: Cargo ship. MMSI: 219470000.

Date/timePositionNaut miles runAvg speedWind from/ knotsBaromVisibWave heightAir tempDewpointWater temp
2018-Feb-14 04:02N 35°39' E 014°37'2 7.4
2018-Feb-14 03:43N 35°41' E 014°37'8 0.2
2018-Feb-12 00:25N 35°49' E 014°33'2 4.4
2018-Feb-12 00:00N 35°48' E 014°35'2 3.4
2018-Feb-11 23:29N 35°48' E 014°36'2 2.8
2018-Feb-11 22:55N 35°47' E 014°38'1 3.2
2018-Feb-11 22:29N 35°46' E 014°39'2 0.2
2018-Feb-11 14:45N 35°44' E 014°40'0 1.2
2018-Feb-11 14:21N 35°44' E 014°40'1 1.2
2018-Feb-11 13:40N 35°45' E 014°39'0 1.0
2018-Feb-11 13:11N 35°45' E 014°39'1 1.2
2018-Feb-11 12:43N 35°46' E 014°38'0 1.1
2018-Feb-11 12:28N 35°46' E 014°38'10 5.3
2018-Feb-11 10:36N 35°43' E 014°26'1 7.4
2018-Feb-11 10:30N 35°42' E 014°25'4 7.7
2018-Feb-11 10:00N 35°40' E 014°21'4 7.7
2018-Feb-11 09:30N 35°39' E 014°17'4 7.7
2018-Feb-11 09:00N 35°37' E 014°13'4 7.8
2018-Feb-11 08:30N 35°35' E 014°09'5 7.4
2018-Feb-11 07:46N 35°33' E 014°03'3 7.3
2018-Feb-11 07:26N 35°32' E 013°60'  
Track history (hours):
 
Tides and Currents Weather Stations Pressure Air Temp Water Temp Dewpoint Dewpoint Depression Visibility Wind Speed Wind Dir Waves Ship Positions

Alexander Maersk

Last reported at 2018-Feb-14 04:02 UTC. Time now 2018-Feb-20 00:01 UTC.
Position N 35°39' E 014°37'.

Length 155 m; draft 7.9 m.

Type: Cargo ship. MMSI: 219470000.

Date/timePositionNaut miles runAvg speedWind from/ knotsBaromVisibWave heightAir tempDewpointWater temp
2018-Feb-14 04:02N 35°39' E 014°37'2 7.4
2018-Feb-14 03:43N 35°41' E 014°37'8 0.2
2018-Feb-12 00:25N 35°49' E 014°33'2 4.4
2018-Feb-12 00:00N 35°48' E 014°35'2 3.4
2018-Feb-11 23:29N 35°48' E 014°36'2 2.8
2018-Feb-11 22:55N 35°47' E 014°38'1 3.2
2018-Feb-11 22:29N 35°46' E 014°39'2 0.2
2018-Feb-11 14:45N 35°44' E 014°40'0 1.2
2018-Feb-11 14:21N 35°44' E 014°40'1 1.2
2018-Feb-11 13:40N 35°45' E 014°39'0 1.0
2018-Feb-11 13:11N 35°45' E 014°39'1 1.2
2018-Feb-11 12:43N 35°46' E 014°38'0 1.1
2018-Feb-11 12:28N 35°46' E 014°38'10 5.3
2018-Feb-11 10:36N 35°43' E 014°26'1 7.4
2018-Feb-11 10:30N 35°42' E 014°25'4 7.7
2018-Feb-11 10:00N 35°40' E 014°21'4 7.7
2018-Feb-11 09:30N 35°39' E 014°17'4 7.7
2018-Feb-11 09:00N 35°37' E 014°13'4 7.8
2018-Feb-11 08:30N 35°35' E 014°09'5 7.4
2018-Feb-11 07:46N 35°33' E 014°03'3 7.3
2018-Feb-11 07:26N 35°32' E 013°60'  

Dump ship's entire track history